createdAt,value
2019-03-27T00:00:41.209Z,7.39
2019-03-27T00:03:11.900Z,7.38
2019-03-27T00:05:42.337Z,7.41
2019-03-27T00:08:12.756Z,7.45
2019-03-27T00:10:43.244Z,7.47
2019-03-27T00:13:13.522Z,6.44
2019-03-27T00:15:44.055Z,7.41
2019-03-27T00:18:14.205Z,7.46
2019-03-27T00:20:44.655Z,7.51
2019-03-27T00:23:14.959Z,7.55
2019-03-27T00:25:45.353Z,6.67
2019-03-27T00:28:15.630Z,7.58
2019-03-27T00:30:46.284Z,7.55
2019-03-27T00:33:16.504Z,7.60
2019-03-27T00:35:46.936Z,7.64
2019-03-27T00:38:17.270Z,7.63
2019-03-27T00:40:47.476Z,7.63
2019-03-27T00:43:18.109Z,7.65
2019-03-27T00:45:48.541Z,7.64
2019-03-27T00:48:19.118Z,7.64
2019-03-27T00:50:49.450Z,7.63
2019-03-27T00:53:20.062Z,7.42
2019-03-27T00:55:50.373Z,7.46
2019-03-27T00:58:20.992Z,7.33
2019-03-27T01:01:09.060Z,7.41
2019-03-27T01:03:39.624Z,7.41
2019-03-27T01:06:10.454Z,7.36
2019-03-27T01:08:40.940Z,7.32
2019-03-27T01:11:11.428Z,7.32
2019-03-27T01:13:41.671Z,7.31
2019-03-27T01:16:12.156Z,7.26
2019-03-27T01:18:42.394Z,7.31
2019-03-27T01:21:12.691Z,7.27
2019-03-27T01:23:43.052Z,7.24
2019-03-27T01:26:13.440Z,7.16
2019-03-27T01:28:43.631Z,7.22
2019-03-27T01:31:15.182Z,7.30
2019-03-27T01:33:45.368Z,7.28
2019-03-27T01:36:15.597Z,7.28
2019-03-27T01:38:46.085Z,7.28
2019-03-27T01:41:16.222Z,7.30
2019-03-27T01:43:46.414Z,7.31
2019-03-27T01:46:17.005Z,7.35
2019-03-27T01:48:47.372Z,7.32
2019-03-27T01:51:17.804Z,7.31
2019-03-27T01:53:48.361Z,7.32
2019-03-27T01:56:18.668Z,7.32
2019-03-27T01:58:49.344Z,7.31
2019-03-27T02:01:19.887Z,7.35
2019-03-27T02:03:50.254Z,7.35
2019-03-27T02:06:20.613Z,7.36
2019-03-27T02:08:51.087Z,7.38
2019-03-27T02:11:21.501Z,7.29
2019-03-27T02:13:51.917Z,7.42
2019-03-27T02:16:22.342Z,7.42
2019-03-27T02:18:52.392Z,7.42
2019-03-27T02:21:23.142Z,7.39
2019-03-27T02:23:53.503Z,7.32
2019-03-27T02:26:24.005Z,7.32
2019-03-27T02:28:54.137Z,7.33
2019-03-27T02:31:24.625Z,7.39
2019-03-27T02:33:55.130Z,7.43
2019-03-27T02:36:25.518Z,7.26
2019-03-27T02:38:55.645Z,7.26
2019-03-27T02:41:25.946Z,7.25
2019-03-27T02:43:56.094Z,7.23
2019-03-27T02:46:26.643Z,7.29
2019-03-27T02:48:57.080Z,7.31
2019-03-27T02:51:27.118Z,7.39
2019-03-27T02:53:57.402Z,7.20
2019-03-27T02:56:27.741Z,7.27
2019-03-27T02:58:58.117Z,7.27
2019-03-27T03:01:28.420Z,7.35
2019-03-27T03:03:59.018Z,7.39
2019-03-27T03:06:29.358Z,7.35
2019-03-27T03:08:59.721Z,7.32
2019-03-27T03:11:30.180Z,7.34
2019-03-27T03:14:00.270Z,7.30
2019-03-27T03:16:42.264Z,7.15
2019-03-27T03:19:02.613Z,7.21
2019-03-27T03:21:32.809Z,7.18
2019-03-27T03:24:03.490Z,7.26
2019-03-27T03:26:33.645Z,7.20
2019-03-27T03:29:03.972Z,7.22
2019-03-27T03:31:34.409Z,7.25
2019-03-27T03:34:04.719Z,7.27
2019-03-27T03:36:35.044Z,7.26
2019-03-27T03:39:06.272Z,7.26
2019-03-27T03:41:36.759Z,7.26
2019-03-27T03:44:07.097Z,7.26
2019-03-27T03:46:37.550Z,7.26
2019-03-27T03:49:07.900Z,7.22
2019-03-27T03:51:38.075Z,7.25
2019-03-27T03:54:09.737Z,7.21
2019-03-27T03:56:41.834Z,7.22
2019-03-27T03:59:13.664Z,7.22
2019-03-27T04:01:46.057Z,7.19
2019-03-27T04:04:17.883Z,7.19
2019-03-27T04:06:48.105Z,7.24
2019-03-27T04:09:18.569Z,7.26
2019-03-27T04:11:49.050Z,7.21
2019-03-27T04:14:19.497Z,7.21
2019-03-27T04:16:49.904Z,7.21
2019-03-27T04:19:20.554Z,7.22
2019-03-27T04:21:50.806Z,7.22
2019-03-27T04:24:21.354Z,7.23
2019-03-27T04:26:51.621Z,7.29
2019-03-27T04:29:22.315Z,7.31
2019-03-27T04:31:52.519Z,7.28
2019-03-27T04:34:22.997Z,7.28
2019-03-27T04:36:53.189Z,7.30
2019-03-27T04:39:23.509Z,7.32
2019-03-27T04:41:53.961Z,7.31
2019-03-27T04:44:24.301Z,7.28
2019-03-27T04:46:54.585Z,7.32
2019-03-27T04:49:24.999Z,7.32
2019-03-27T04:51:55.172Z,7.30
2019-03-27T04:54:27.026Z,7.27
2019-03-27T04:56:57.493Z,7.31
2019-03-27T04:59:27.696Z,7.30
2019-03-27T05:01:58.118Z,7.28
2019-03-27T05:04:29.043Z,7.17
2019-03-27T05:06:59.524Z,7.10
2019-03-27T05:09:29.584Z,7.10
2019-03-27T05:11:59.935Z,7.02
2019-03-27T05:14:30.353Z,7.06
2019-03-27T05:17:01.213Z,7.07
2019-03-27T05:19:31.299Z,7.10
2019-03-27T05:22:01.515Z,7.07
2019-03-27T05:24:31.889Z,7.16
2019-03-27T05:27:02.354Z,7.24
2019-03-27T05:29:32.541Z,7.16
2019-03-27T05:32:02.893Z,7.18
2019-03-27T05:34:32.983Z,7.18
2019-03-27T05:37:03.122Z,7.26
2019-03-27T05:39:33.710Z,7.18
2019-03-27T05:42:04.193Z,7.16
2019-03-27T05:44:34.635Z,7.13
2019-03-27T05:47:05.053Z,7.12
2019-03-27T05:49:35.571Z,7.10
2019-03-27T05:52:05.687Z,7.07
2019-03-27T05:54:35.989Z,7.05
2019-03-27T05:57:06.193Z,6.90
2019-03-27T05:59:36.410Z,6.90
2019-03-27T06:02:06.726Z,6.98
2019-03-27T06:04:36.906Z,6.98
2019-03-27T06:13:17.329Z,6.89
2019-03-27T06:15:47.366Z,7.04
2019-03-27T06:18:17.428Z,7.16
2019-03-27T06:20:48.047Z,7.15
2019-03-27T06:23:18.092Z,7.20
2019-03-27T06:25:48.037Z,7.26
2019-03-27T06:28:20.232Z,7.31
2019-03-27T06:30:53.252Z,7.32
2019-03-27T06:33:23.378Z,7.39
2019-03-27T06:35:53.598Z,7.47
2019-03-27T06:38:23.631Z,7.47
2019-03-27T06:40:53.815Z,7.50
2019-03-27T06:43:23.943Z,7.48
2019-03-27T06:45:53.980Z,7.55
2019-03-27T06:48:26.388Z,7.57
2019-03-27T06:50:55.873Z,7.59
2019-03-27T06:53:26.029Z,7.56
2019-03-27T06:55:56.138Z,7.57
2019-03-27T06:58:26.375Z,7.57
2019-03-27T07:00:56.641Z,7.56
2019-03-27T07:03:26.693Z,7.57
2019-03-27T07:05:57.024Z,7.58
2019-03-27T07:08:27.081Z,7.58
2019-03-27T07:10:57.092Z,7.57
2019-03-27T07:13:27.661Z,7.57
2019-03-27T07:15:57.736Z,7.59
2019-03-27T07:18:39.499Z,7.50
2019-03-27T07:21:01.973Z,7.42
2019-03-27T07:23:31.991Z,7.52
2019-03-27T07:26:02.361Z,7.48
2019-03-27T07:28:34.938Z,7.43
2019-03-27T07:31:05.380Z,7.44
2019-03-27T07:33:35.420Z,7.52
2019-03-27T07:36:05.355Z,7.54
2019-03-27T07:38:35.649Z,7.55
2019-03-27T07:41:05.781Z,7.50
2019-03-27T07:43:36.025Z,7.50
2019-03-27T07:46:06.157Z,7.69
2019-03-27T07:48:36.143Z,7.72
2019-03-27T07:51:06.874Z,7.72
2019-03-27T07:53:37.192Z,7.78
2019-03-27T07:56:07.474Z,7.89
2019-03-27T07:58:37.796Z,7.91
2019-03-27T08:01:07.984Z,7.92
2019-03-27T08:03:38.006Z,7.90
2019-03-27T08:06:07.975Z,7.97
2019-03-27T08:08:38.344Z,7.91
2019-03-27T08:11:08.423Z,7.83
2019-03-27T08:13:39.022Z,7.95
2019-03-27T08:16:09.188Z,7.95
2019-03-27T08:18:39.104Z,8.05
2019-03-27T08:21:09.370Z,8.24
2019-03-27T08:23:39.617Z,8.24
2019-03-27T08:26:09.656Z,8.24
2019-03-27T08:28:39.941Z,8.38
2019-03-27T08:31:10.271Z,8.41
2019-03-27T08:33:40.274Z,8.39
2019-03-27T08:36:10.405Z,8.47
2019-03-27T08:38:40.419Z,8.47
2019-03-27T08:41:10.503Z,7.45
2019-03-27T08:43:41.074Z,8.41
2019-03-27T08:46:11.101Z,8.51
2019-03-27T08:48:40.993Z,8.65
2019-03-27T08:51:11.244Z,8.03
2019-03-27T08:53:42.673Z,8.85
2019-03-27T08:56:12.832Z,9.02
2019-03-27T08:58:42.992Z,8.94
2019-03-27T09:01:12.944Z,8.96
2019-03-27T09:03:43.079Z,9.05
2019-03-27T09:06:13.576Z,9.05
2019-03-27T09:08:43.513Z,9.16
2019-03-27T09:11:13.754Z,9.20
2019-03-27T09:13:44.054Z,9.17
2019-03-27T09:16:14.068Z,9.21
2019-03-27T09:18:44.304Z,9.20
2019-03-27T09:21:14.274Z,9.35
2019-03-27T09:23:45.880Z,9.42
2019-03-27T09:26:16.375Z,9.28
2019-03-27T09:28:46.519Z,9.28
2019-03-27T09:31:16.667Z,9.36
2019-03-27T09:33:46.860Z,8.40
2019-03-27T09:36:16.975Z,9.42
2019-03-27T09:38:47.151Z,9.34
2019-03-27T09:41:17.369Z,9.34
2019-03-27T09:43:47.525Z,9.39
2019-03-27T09:46:17.576Z,9.50
2019-03-27T09:48:47.677Z,9.61
2019-03-27T09:51:17.643Z,9.68
2019-03-27T09:53:47.663Z,9.74
2019-03-27T09:56:19.342Z,9.78
2019-03-27T09:58:50.034Z,9.76
2019-03-27T10:01:20.194Z,9.73
2019-03-27T10:03:50.115Z,9.88
2019-03-27T10:06:20.181Z,9.98
2019-03-27T10:08:50.325Z,10.02
2019-03-27T10:11:23.597Z,10.04
2019-03-27T10:13:52.295Z,10.03
2019-03-27T10:16:22.370Z,9.95
2019-03-27T10:18:52.453Z,10.07
2019-03-27T10:21:22.665Z,10.14
2019-03-27T10:23:52.723Z,10.19
2019-03-27T10:26:22.715Z,10.28
2019-03-27T10:28:53.226Z,10.34
2019-03-27T10:31:23.200Z,10.40
2019-03-27T10:33:53.246Z,10.50
2019-03-27T10:36:23.459Z,10.69
2019-03-27T10:38:53.528Z,10.77
2019-03-27T10:41:23.497Z,10.93
2019-03-27T10:43:54.038Z,10.79
2019-03-27T10:46:24.013Z,10.65
2019-03-27T10:48:53.996Z,10.76
2019-03-27T10:51:24.221Z,10.77
2019-03-27T10:53:54.192Z,10.56
2019-03-27T10:56:24.218Z,10.47
2019-03-27T10:58:54.629Z,10.46
2019-03-27T11:01:24.629Z,10.53
2019-03-27T11:03:54.568Z,10.61
2019-03-27T11:06:25.257Z,10.67
2019-03-27T11:08:55.231Z,10.71
2019-03-27T11:11:25.463Z,10.78
2019-03-27T11:13:56.113Z,10.62
2019-03-27T11:16:26.161Z,10.64
2019-03-27T11:18:56.203Z,10.66
2019-03-27T11:21:26.490Z,10.73
2019-03-27T11:23:56.642Z,10.75
2019-03-27T11:26:26.669Z,10.55
2019-03-27T11:28:57.145Z,10.73
2019-03-27T11:31:27.225Z,10.94
2019-03-27T11:33:57.265Z,11.10
2019-03-27T11:36:27.457Z,11.18
2019-03-27T11:38:58.429Z,11.28
2019-03-27T11:41:28.655Z,11.38
2019-03-27T11:43:58.714Z,11.49
2019-03-27T11:46:32.047Z,11.65
2019-03-27T11:49:00.718Z,11.75
2019-03-27T11:51:30.832Z,11.79
2019-03-27T11:54:00.867Z,12.01
2019-03-27T11:56:30.984Z,12.08
2019-03-27T11:59:01.271Z,11.95
2019-03-27T12:01:39.646Z,11.92
2019-03-27T12:04:03.337Z,12.01
2019-03-27T12:06:33.885Z,11.91
2019-03-27T12:09:05.383Z,12.04
2019-03-27T12:11:35.432Z,12.14
2019-03-27T12:14:06.071Z,12.24
2019-03-27T12:16:36.198Z,12.31
2019-03-27T12:19:06.481Z,12.44
2019-03-27T12:21:36.920Z,12.39
2019-03-27T12:24:07.025Z,12.47
2019-03-27T12:26:37.042Z,12.33
2019-03-27T12:29:07.314Z,12.41
2019-03-27T12:31:37.507Z,12.52
2019-03-27T12:34:07.509Z,12.37
2019-03-27T12:36:37.546Z,12.41
2019-03-27T12:39:09.456Z,12.33
2019-03-27T12:41:39.762Z,12.38
2019-03-27T12:44:11.058Z,12.56
2019-03-27T12:46:41.152Z,12.69
2019-03-27T12:49:11.097Z,12.84
2019-03-27T12:51:41.048Z,12.65
2019-03-27T12:54:11.431Z,12.49
2019-03-27T12:56:41.337Z,12.40
2019-03-27T12:59:11.599Z,12.56
2019-03-27T13:01:41.823Z,12.79
2019-03-27T13:04:11.827Z,12.83
2019-03-27T13:06:41.869Z,12.57
2019-03-27T13:09:12.150Z,12.61
2019-03-27T13:11:42.133Z,12.50
2019-03-27T13:14:13.499Z,12.35
2019-03-27T13:16:43.536Z,12.39
2019-03-27T13:19:13.612Z,12.27
2019-03-27T13:21:43.891Z,12.23
2019-03-27T13:24:14.039Z,12.18
2019-03-27T13:26:44.411Z,12.00
2019-03-27T13:29:14.910Z,11.99
2019-03-27T13:31:44.908Z,12.00
2019-03-27T13:34:14.867Z,12.14
2019-03-27T13:36:49.188Z,12.24
2019-03-27T13:39:19.479Z,12.26
2019-03-27T13:41:49.558Z,12.25
2019-03-27T13:44:19.808Z,12.27
2019-03-27T13:46:49.914Z,12.28
2019-03-27T13:49:20.352Z,11.98
2019-03-27T13:51:50.442Z,11.94
2019-03-27T13:54:20.500Z,11.82
2019-03-27T13:56:50.612Z,12.06
2019-03-27T13:59:21.032Z,12.11
2019-03-27T14:01:51.046Z,12.20
2019-03-27T14:04:21.117Z,12.19
2019-03-27T14:06:51.673Z,12.19
2019-03-27T14:09:21.796Z,12.26
2019-03-27T14:11:52.316Z,12.30
2019-03-27T14:14:22.670Z,12.29
2019-03-27T14:16:52.702Z,12.35
2019-03-27T14:19:22.928Z,12.35
2019-03-27T14:21:54.953Z,12.15
2019-03-27T14:24:25.583Z,12.06
2019-03-27T14:26:55.596Z,12.11
2019-03-27T14:29:26.102Z,12.09
2019-03-27T14:31:56.692Z,12.07
2019-03-27T14:34:26.701Z,12.09
2019-03-27T14:36:57.689Z,11.86
2019-03-27T14:39:28.019Z,11.75
2019-03-27T14:41:58.306Z,11.77
2019-03-27T14:44:30.767Z,11.67
2019-03-27T14:47:02.181Z,11.65
2019-03-27T14:49:32.243Z,11.61
2019-03-27T14:52:08.384Z,11.55
2019-03-27T14:54:37.085Z,11.44
2019-03-27T14:57:07.578Z,11.31
2019-03-27T14:59:37.882Z,10.20
2019-03-27T15:02:08.435Z,11.09
2019-03-27T15:04:38.862Z,11.13
2019-03-27T15:07:09.280Z,11.00
2019-03-27T15:09:40.230Z,11.04
2019-03-27T15:12:10.607Z,11.00
2019-03-27T15:14:41.069Z,11.03
2019-03-27T15:17:11.481Z,10.97
2019-03-27T15:19:41.822Z,10.84
2019-03-27T15:22:22.235Z,10.81
2019-03-27T15:24:44.254Z,10.93
2019-03-27T15:27:14.439Z,10.91
2019-03-27T15:29:45.461Z,10.87
2019-03-27T15:32:18.755Z,10.88
2019-03-27T15:34:48.720Z,10.89
2019-03-27T15:37:18.737Z,10.84
2019-03-27T15:39:51.407Z,10.81
2019-03-27T15:42:21.617Z,10.74
2019-03-27T15:44:52.702Z,10.75
2019-03-27T15:47:22.954Z,10.64
2019-03-27T15:49:53.246Z,10.52
2019-03-27T15:52:35.803Z,10.48
2019-03-27T15:54:55.612Z,10.47
2019-03-27T15:57:25.876Z,10.47
2019-03-27T15:59:56.210Z,10.48
2019-03-27T16:02:26.395Z,10.61
2019-03-27T16:04:59.223Z,10.54
2019-03-27T16:07:31.475Z,10.50
2019-03-27T16:10:02.217Z,10.56
2019-03-27T16:12:36.114Z,10.58
2019-03-27T16:15:06.124Z,10.42
2019-03-27T16:17:36.811Z,10.46
2019-03-27T16:20:10.615Z,10.53
2019-03-27T16:22:50.627Z,10.62
2019-03-27T16:25:12.987Z,10.53
2019-03-27T16:27:42.998Z,10.57
2019-03-27T16:30:13.298Z,10.45
2019-03-27T16:32:43.414Z,10.42
2019-03-27T16:35:14.968Z,10.39
2019-03-27T16:37:45.469Z,10.41
2019-03-27T16:40:15.964Z,10.45
2019-03-27T16:42:46.306Z,10.39
2019-03-27T16:45:16.719Z,10.38
2019-03-27T16:47:46.787Z,10.38
2019-03-27T16:50:17.313Z,10.42
2019-03-27T16:52:47.483Z,10.38
2019-03-27T16:55:17.492Z,10.37
2019-03-27T16:57:51.193Z,10.37
2019-03-27T17:00:20.045Z,10.40
2019-03-27T17:02:50.144Z,10.46
2019-03-27T17:05:20.452Z,9.68
2019-03-27T17:07:50.684Z,10.45
2019-03-27T17:10:20.896Z,10.45
2019-03-27T17:12:51.302Z,10.30
2019-03-27T17:15:28.740Z,10.30
2019-03-27T17:18:06.998Z,10.26
2019-03-27T17:20:41.819Z,10.24
2019-03-27T17:23:18.407Z,10.28
2019-03-27T17:25:45.205Z,10.20
2019-03-27T17:28:15.555Z,10.19
2019-03-27T17:30:45.833Z,10.16
2019-03-27T17:33:17.074Z,10.17
2019-03-27T17:35:47.197Z,10.18
2019-03-27T17:38:17.444Z,10.04
2019-03-27T17:40:48.172Z,10.02
2019-03-27T17:43:18.626Z,10.03
2019-03-27T17:45:48.798Z,10.04
2019-03-27T17:48:19.175Z,10.01
2019-03-27T17:50:49.413Z,9.93
2019-03-27T17:53:37.608Z,9.87
2019-03-27T17:56:26.796Z,9.86
2019-03-27T17:59:01.447Z,9.87
2019-03-27T18:01:35.269Z,9.77
2019-03-27T18:04:07.987Z,9.73
2019-03-27T18:06:38.149Z,9.77
2019-03-27T18:09:09.899Z,9.76
2019-03-27T18:11:40.027Z,9.76
2019-03-27T18:14:10.364Z,9.73
2019-03-27T18:16:41.795Z,9.73
2019-03-27T18:19:12.263Z,9.65
2019-03-27T18:21:42.495Z,9.62
2019-03-27T18:24:12.916Z,9.63
2019-03-27T18:26:45.164Z,9.68
2019-03-27T18:29:17.810Z,9.72
2019-03-27T18:31:48.104Z,9.70
2019-03-27T18:34:27.599Z,9.69
2019-03-27T18:37:01.206Z,9.67
2019-03-27T18:39:33.563Z,9.58
2019-03-27T18:42:03.813Z,9.52
2019-03-27T18:44:34.003Z,9.52
2019-03-27T18:47:04.411Z,9.48
2019-03-27T18:49:36.286Z,9.43
2019-03-27T18:52:28.644Z,9.41
2019-03-27T18:55:02.212Z,9.39
2019-03-27T18:58:30.060Z,9.34
2019-03-27T19:01:00.902Z,9.26
2019-03-27T19:03:40.432Z,9.20
2019-03-27T19:06:14.198Z,9.22
2019-03-27T19:08:44.374Z,9.22
2019-03-27T19:11:14.721Z,9.17
2019-03-27T19:13:49.215Z,9.15
2019-03-27T19:16:20.710Z,9.11
2019-03-27T19:18:50.993Z,9.01
2019-03-27T19:21:23.988Z,8.88
2019-03-27T19:23:54.251Z,8.88
2019-03-27T19:26:24.505Z,8.85
2019-03-27T19:28:55.011Z,8.85
2019-03-27T19:31:26.132Z,8.80
2019-03-27T19:33:59.357Z,8.78
2019-03-27T19:36:29.579Z,8.77
2019-03-27T19:39:00.050Z,8.90
2019-03-27T19:41:30.803Z,8.90
2019-03-27T19:44:01.599Z,8.91
2019-03-27T19:46:32.224Z,8.70
2019-03-27T19:49:03.074Z,8.70
2019-03-27T19:51:34.773Z,8.69
2019-03-27T19:54:05.307Z,8.66
2019-03-27T19:56:37.743Z,8.68
2019-03-27T19:59:08.064Z,8.51
2019-03-27T20:01:38.393Z,8.51
2019-03-27T20:04:08.455Z,8.41
2019-03-27T20:06:39.063Z,8.33
2019-03-27T20:09:15.467Z,8.19
2019-03-27T20:11:57.708Z,8.19
2019-03-27T20:14:30.689Z,8.18
2019-03-27T20:17:01.018Z,8.16
2019-03-27T20:19:31.454Z,8.16
2019-03-27T20:22:01.689Z,8.13
2019-03-27T20:24:40.845Z,8.08
2019-03-27T20:27:04.099Z,8.03
2019-03-27T20:29:35.333Z,7.89
2019-03-27T20:32:07.088Z,7.89
2019-03-27T20:34:40.105Z,7.83
2019-03-27T20:37:13.809Z,7.84
2019-03-27T20:39:44.938Z,7.82
2019-03-27T20:42:15.889Z,7.78
2019-03-27T20:44:46.832Z,7.78
2019-03-27T20:47:17.787Z,7.73
2019-03-27T20:49:49.352Z,7.72
2019-03-27T20:52:19.971Z,7.68
2019-03-27T20:54:55.414Z,7.67
2019-03-27T20:57:22.832Z,7.58
2019-03-27T20:59:53.258Z,7.57
2019-03-27T21:02:26.542Z,7.55
2019-03-27T21:04:57.343Z,7.57
2019-03-27T21:07:27.655Z,7.61
2019-03-27T21:09:59.089Z,7.61
2019-03-27T21:12:29.493Z,7.66
2019-03-27T21:15:04.472Z,7.66
2019-03-27T21:17:34.787Z,7.63
2019-03-27T21:20:06.841Z,7.60
2019-03-27T21:22:37.409Z,7.60
2019-03-27T21:25:10.006Z,7.57
2019-03-27T21:27:40.408Z,7.57
2019-03-27T21:30:12.548Z,7.56
2019-03-27T21:32:43.217Z,7.53
2019-03-27T21:35:14.223Z,7.51
2019-03-27T21:37:44.769Z,7.47
2019-03-27T21:40:15.961Z,7.40
2019-03-27T21:42:47.242Z,7.40
2019-03-27T21:45:17.832Z,7.46
2019-03-27T21:47:48.228Z,7.46
2019-03-27T21:50:18.679Z,7.43
2019-03-27T21:52:59.965Z,7.40
2019-03-27T21:55:22.945Z,7.39
2019-03-27T21:57:53.237Z,7.34
2019-03-27T22:00:39.965Z,7.27
2019-03-27T22:03:11.949Z,7.20
2019-03-27T22:05:42.314Z,7.14
2019-03-27T22:08:12.490Z,7.14
2019-03-27T22:10:42.773Z,7.12
2019-03-27T22:13:12.817Z,7.11
2019-03-27T22:15:42.924Z,7.07
2019-03-27T22:18:13.497Z,7.03
2019-03-27T22:20:43.991Z,7.03
2019-03-27T22:23:14.782Z,7.01
2019-03-27T22:25:45.304Z,7.08
2019-03-27T22:28:20.507Z,7.10
2019-03-27T22:30:53.979Z,7.18
2019-03-27T22:33:24.739Z,7.26
2019-03-27T22:35:56.140Z,7.19
2019-03-27T22:38:26.633Z,7.02
2019-03-27T22:40:56.843Z,7.02
2019-03-27T22:43:27.488Z,6.92
2019-03-27T22:45:58.385Z,6.87
2019-03-27T22:48:28.889Z,6.87
2019-03-27T22:50:59.647Z,6.90
2019-03-27T22:53:30.100Z,6.87
2019-03-27T22:56:02.337Z,6.86
2019-03-27T22:58:32.845Z,6.79
2019-03-27T23:01:03.078Z,6.76
2019-03-27T23:03:33.335Z,6.76
2019-03-27T23:06:03.909Z,6.70
2019-03-27T23:08:36.608Z,6.70
2019-03-27T23:11:07.015Z,6.69
2019-03-27T23:13:37.099Z,6.65
2019-03-27T23:16:07.887Z,6.65
2019-03-27T23:18:38.450Z,6.60
2019-03-27T23:21:08.786Z,6.66
2019-03-27T23:23:39.220Z,6.63
2019-03-27T23:26:09.360Z,6.63
2019-03-27T23:28:39.528Z,6.71
2019-03-27T23:31:09.810Z,6.71
2019-03-27T23:33:40.928Z,6.83
2019-03-27T23:36:11.709Z,6.83
2019-03-27T23:38:41.895Z,6.76
2019-03-27T23:41:11.976Z,6.81
2019-03-27T23:43:42.238Z,6.88
2019-03-27T23:46:12.310Z,6.88
2019-03-27T23:48:42.835Z,6.97
2019-03-27T23:51:13.034Z,7.04
2019-03-27T23:53:43.077Z,7.11
2019-03-27T23:56:16.787Z,7.14
2019-03-27T23:58:45.177Z,7.15
